Aviation Digital Data Service (ADDS)

Output produced by METARs form (1414 UTC 19 July 2019)
found at http://aviationweather.gov/metar/data/
 
TAF EPDA 191400Z 1915/1924 VRB03KT CAVOK 
     TEMPO 1915/1921 SCT030TCU 
     PROB30 
     TEMPO 1917/1921 TSRA BKN030CB